sensor_id;sensor_type;location;lat;lon;timestamp;pressure;altitude;pressure_sealevel;temperature;humidity
76847;BME280;65813;49.546;8.644;2023-06-24T03:46:18;101427.75;;;16.41;69.56
76847;BME280;65813;49.546;8.644;2023-06-24T03:50:19;101435.00;;;16.41;69.13
76847;BME280;65813;49.546;8.644;2023-06-24T03:54:19;101434.50;;;16.47;69.57
76847;BME280;65813;49.546;8.644;2023-06-24T03:58:19;101435.09;;;16.50;69.48
76847;BME280;65813;49.546;8.644;2023-06-24T04:02:21;101432.00;;;16.55;69.05
76847;BME280;65813;49.546;8.644;2023-06-24T04:06:21;101438.78;;;16.60;68.97
76847;BME280;65813;49.546;8.644;2023-06-24T04:10:22;101435.47;;;16.68;68.64
76847;BME280;65813;49.546;8.644;2023-06-24T04:14:22;101439.00;;;16.69;68.15
76847;BME280;65813;49.546;8.644;2023-06-24T04:18:23;101443.03;;;16.74;68.33
76847;BME280;65813;49.546;8.644;2023-06-24T04:22:23;101445.47;;;16.66;68.30
76847;BME280;65813;49.546;8.644;2023-06-24T04:26:23;101448.50;;;16.73;68.11
76847;BME280;65813;49.546;8.644;2023-06-24T04:30:24;101451.69;;;16.89;67.84
76847;BME280;65813;49.546;8.644;2023-06-24T04:34:24;101458.50;;;16.93;67.49
76847;BME280;65813;49.546;8.644;2023-06-24T04:38:24;101462.78;;;16.95;67.65
76847;BME280;65813;49.546;8.644;2023-06-24T04:42:24;101465.94;;;17.00;67.45
76847;BME280;65813;49.546;8.644;2023-06-24T04:46:25;101472.38;;;17.20;66.36
76847;BME280;65813;49.546;8.644;2023-06-24T04:50:25;101460.03;;;17.38;65.98
76847;BME280;65813;49.546;8.644;2023-06-24T04:54:26;101458.84;;;17.63;65.25
76847;BME280;65813;49.546;8.644;2023-06-24T04:58:27;101460.63;;;17.74;65.19
76847;BME280;65813;49.546;8.644;2023-06-24T05:02:27;101461.13;;;17.88;64.66
76847;BME280;65813;49.546;8.644;2023-06-24T05:06:28;101465.78;;;17.86;64.44
76847;BME280;65813;49.546;8.644;2023-06-24T05:10:28;101471.25;;;17.96;64.63
76847;BME280;65813;49.546;8.644;2023-06-24T05:14:28;101470.19;;;18.08;63.83
76847;BME280;65813;49.546;8.644;2023-06-24T05:18:28;101466.00;;;18.25;63.14
76847;BME280;65813;49.546;8.644;2023-06-24T05:22:29;101476.97;;;18.33;63.82
76847;BME280;65813;49.546;8.644;2023-06-24T05:26:29;101479.00;;;18.40;63.07
76847;BME280;65813;49.546;8.644;2023-06-24T05:30:29;101479.03;;;18.50;62.55
76847;BME280;65813;49.546;8.644;2023-06-24T05:34:30;101478.97;;;18.61;64.31
76847;BME280;65813;49.546;8.644;2023-06-24T05:38:31;101485.94;;;18.73;61.83
76847;BME280;65813;49.546;8.644;2023-06-24T05:42:31;101490.38;;;18.74;63.76
76847;BME280;65813;49.546;8.644;2023-06-24T05:46:32;101482.44;;;18.82;62.98
76847;BME280;65813;49.546;8.644;2023-06-24T05:50:32;101481.03;;;19.07;60.91
76847;BME280;65813;49.546;8.644;2023-06-24T05:54:32;101479.34;;;19.06;62.34
76847;BME280;65813;49.546;8.644;2023-06-24T05:58:32;101486.47;;;19.16;61.82
76847;BME280;65813;49.546;8.644;2023-06-24T06:02:33;101483.44;;;19.00;63.58
76847;BME280;65813;49.546;8.644;2023-06-24T06:06:33;101478.31;;;18.88;63.78
76847;BME280;65813;49.546;8.644;2023-06-24T06:10:33;101483.72;;;18.97;63.31
76847;BME280;65813;49.546;8.644;2023-06-24T06:14:34;101495.41;;;19.07;61.35
76847;BME280;65813;49.546;8.644;2023-06-24T06:18:34;101496.56;;;19.14;62.38
76847;BME280;65813;49.546;8.644;2023-06-24T06:22:34;101498.13;;;19.17;61.78
76847;BME280;65813;49.546;8.644;2023-06-24T06:26:44;101493.59;;;19.27;60.64
76847;BME280;65813;49.546;8.644;2023-06-24T06:30:44;101493.84;;;19.24;61.18
76847;BME280;65813;49.546;8.644;2023-06-24T06:34:44;101494.44;;;19.28;61.00
76847;BME280;65813;49.546;8.644;2023-06-24T06:38:45;101497.84;;;19.30;60.93
76847;BME280;65813;49.546;8.644;2023-06-24T06:42:45;101498.84;;;19.38;60.63
76847;BME280;65813;49.546;8.644;2023-06-24T06:46:46;101498.31;;;19.54;61.27
76847;BME280;65813;49.546;8.644;2023-06-24T06:50:46;101492.78;;;19.65;59.97
76847;BME280;65813;49.546;8.644;2023-06-24T06:54:46;101488.75;;;19.69;60.93
76847;BME280;65813;49.546;8.644;2023-06-24T06:58:47;101490.91;;;19.56;60.65
76847;BME280;65813;49.546;8.644;2023-06-24T07:02:47;101485.94;;;19.61;61.16
76847;BME280;65813;49.546;8.644;2023-06-24T07:06:47;101482.50;;;19.78;58.33
76847;BME280;65813;49.546;8.644;2023-06-24T07:10:48;101479.91;;;19.86;57.21
76847;BME280;65813;49.546;8.644;2023-06-24T07:14:49;101483.69;;;20.12;56.55
76847;BME280;65813;49.546;8.644;2023-06-24T07:18:49;101474.56;;;20.13;56.17
76847;BME280;65813;49.546;8.644;2023-06-24T07:22:50;101481.38;;;20.37;55.30
76847;BME280;65813;49.546;8.644;2023-06-24T07:26:50;101483.13;;;20.55;56.67
76847;BME280;65813;49.546;8.644;2023-06-24T07:30:51;101480.16;;;20.49;56.47
76847;BME280;65813;49.546;8.644;2023-06-24T07:34:51;101478.81;;;20.62;55.46
76847;BME280;65813;49.546;8.644;2023-06-24T07:38:51;101473.63;;;20.69;54.27
76847;BME280;65813;49.546;8.644;2023-06-24T07:42:53;101471.59;;;20.53;55.36
76847;BME280;65813;49.546;8.644;2023-06-24T07:46:53;101473.63;;;20.42;55.08
76847;BME280;65813;49.546;8.644;2023-06-24T07:50:54;101476.34;;;20.42;55.38
76847;BME280;65813;49.546;8.644;2023-06-24T07:54:54;101487.44;;;20.48;56.11
76847;BME280;65813;49.546;8.644;2023-06-24T07:58:54;101473.53;;;20.88;54.75
76847;BME280;65813;49.546;8.644;2023-06-24T08:02:55;101474.72;;;20.86;53.82
76847;BME280;65813;49.546;8.644;2023-06-24T08:06:55;101473.41;;;21.07;53.73
76847;BME280;65813;49.546;8.644;2023-06-24T08:10:56;101475.53;;;20.86;54.50
76847;BME280;65813;49.546;8.644;2023-06-24T08:14:56;101474.38;;;21.34;53.29
76847;BME280;65813;49.546;8.644;2023-06-24T08:18:57;101475.69;;;21.12;54.44
76847;BME280;65813;49.546;8.644;2023-06-24T08:22:57;101474.63;;;21.23;53.88
76847;BME280;65813;49.546;8.644;2023-06-24T08:26:57;101464.44;;;21.60;54.36
76847;BME280;65813;49.546;8.644;2023-06-24T08:30:58;101462.56;;;21.78;52.05
76847;BME280;65813;49.546;8.644;2023-06-24T08:34:58;101459.38;;;22.08;51.94
76847;BME280;65813;49.546;8.644;2023-06-24T08:38:58;101457.47;;;22.35;50.59
76847;BME280;65813;49.546;8.644;2023-06-24T08:42:59;101450.16;;;22.61;50.16
76847;BME280;65813;49.546;8.644;2023-06-24T08:46:59;101450.00;;;23.45;48.67
76847;BME280;65813;49.546;8.644;2023-06-24T08:51:00;101453.69;;;23.11;49.88
76847;BME280;65813;49.546;8.644;2023-06-24T08:55:04;101445.22;;;23.95;48.59
76847;BME280;65813;49.546;8.644;2023-06-24T08:59:06;101443.84;;;23.99;46.44
76847;BME280;65813;49.546;8.644;2023-06-24T09:03:06;101453.06;;;23.42;47.36
76847;BME280;65813;49.546;8.644;2023-06-24T09:07:07;101442.84;;;23.20;47.56
76847;BME280;65813;49.546;8.644;2023-06-24T09:11:08;101441.50;;;23.56;46.42
76847;BME280;65813;49.546;8.644;2023-06-24T09:15:14;101446.63;;;23.75;46.98
76847;BME280;65813;49.546;8.644;2023-06-24T09:19:26;101428.91;;;23.55;46.01
76847;BME280;65813;49.546;8.644;2023-06-24T09:23:29;101432.50;;;23.63;45.73
76847;BME280;65813;49.546;8.644;2023-06-24T09:27:35;101429.25;;;23.52;45.77
76847;BME280;65813;49.546;8.644;2023-06-24T09:31:35;101425.91;;;24.29;44.22
76847;BME280;65813;49.546;8.644;2023-06-24T09:35:35;101423.84;;;23.60;45.72
76847;BME280;65813;49.546;8.644;2023-06-24T09:39:39;101418.63;;;24.13;44.43
76847;BME280;65813;49.546;8.644;2023-06-24T09:43:42;101403.88;;;24.86;42.80
76847;BME280;65813;49.546;8.644;2023-06-24T09:47:43;101403.19;;;25.52;39.51
76847;BME280;65813;49.546;8.644;2023-06-24T09:51:45;101396.75;;;25.82;41.19
76847;BME280;65813;49.546;8.644;2023-06-24T09:55:46;101393.34;;;25.43;41.29
76847;BME280;65813;49.546;8.644;2023-06-24T09:59:48;101387.13;;;25.11;42.28
76847;BME280;65813;49.546;8.644;2023-06-24T10:03:49;101387.44;;;25.17;42.35
76847;BME280;65813;49.546;8.644;2023-06-24T10:07:49;101379.25;;;24.63;43.98
76847;BME280;65813;49.546;8.644;2023-06-24T10:11:50;101375.50;;;24.95;44.28
76847;BME280;65813;49.546;8.644;2023-06-24T10:15:50;101366.91;;;25.06;44.56
76847;BME280;65813;49.546;8.644;2023-06-24T10:19:52;101365.16;;;25.28;42.83
76847;BME280;65813;49.546;8.644;2023-06-24T10:23:54;101362.97;;;25.46;42.39
76847;BME280;65813;49.546;8.644;2023-06-24T10:27:54;101344.88;;;25.82;39.68
76847;BME280;65813;49.546;8.644;2023-06-24T10:31:55;101337.97;;;26.16;39.64
76847;BME280;65813;49.546;8.644;2023-06-24T10:35:56;101333.66;;;25.77;38.39
76847;BME280;65813;49.546;8.644;2023-06-24T10:39:57;101329.72;;;25.65;38.95
76847;BME280;65813;49.546;8.644;2023-06-24T10:43:58;101321.16;;;25.45;39.36
76847;BME280;65813;49.546;8.644;2023-06-24T10:47:59;101324.78;;;26.34;37.35
76847;BME280;65813;49.546;8.644;2023-06-24T10:52:00;101312.94;;;27.05;35.24
76847;BME280;65813;49.546;8.644;2023-06-24T10:56:01;101309.31;;;27.47;36.76
76847;BME280;65813;49.546;8.644;2023-06-24T11:00:03;101305.19;;;27.98;37.22
76847;BME280;65813;49.546;8.644;2023-06-24T11:04:05;101297.66;;;28.07;35.92
76847;BME280;65813;49.546;8.644;2023-06-24T11:08:06;101291.53;;;27.71;34.54
76847;BME280;65813;49.546;8.644;2023-06-24T11:12:08;101289.22;;;27.68;37.35
76847;BME280;65813;49.546;8.644;2023-06-24T11:16:09;101280.28;;;27.93;34.32
76847;BME280;65813;49.546;8.644;2023-06-24T11:20:11;101271.84;;;27.26;35.94
76847;BME280;65813;49.546;8.644;2023-06-24T11:24:12;101272.56;;;27.13;35.88
76847;BME280;65813;49.546;8.644;2023-06-24T11:28:21;101267.22;;;27.27;35.69
76847;BME280;65813;49.546;8.644;2023-06-24T11:32:22;101269.63;;;26.87;37.97
76847;BME280;65813;49.546;8.644;2023-06-24T11:36:22;101264.34;;;26.65;38.15
76847;BME280;65813;49.546;8.644;2023-06-24T11:40:23;101262.97;;;26.75;38.03
76847;BME280;65813;49.546;8.644;2023-06-24T11:44:24;101260.56;;;26.87;36.98
76847;BME280;65813;49.546;8.644;2023-06-24T11:48:28;101255.38;;;27.20;36.78
76847;BME280;65813;49.546;8.644;2023-06-24T11:56:37;101253.19;;;27.71;35.14
76847;BME280;65813;49.546;8.644;2023-06-24T12:00:41;101241.31;;;27.23;36.53
76847;BME280;65813;49.546;8.644;2023-06-24T12:04:43;101243.31;;;27.14;36.35
76847;BME280;65813;49.546;8.644;2023-06-24T12:08:44;101241.81;;;27.05;37.22
76847;BME280;65813;49.546;8.644;2023-06-24T12:12:44;101237.31;;;27.25;35.90
76847;BME280;65813;49.546;8.644;2023-06-24T12:16:44;101233.81;;;27.10;34.87
76847;BME280;65813;49.546;8.644;2023-06-24T12:20:45;101232.28;;;26.80;36.29
76847;BME280;65813;49.546;8.644;2023-06-24T12:24:45;101223.63;;;26.97;35.56
76847;BME280;65813;49.546;8.644;2023-06-24T12:28:45;101222.34;;;26.93;36.92
76847;BME280;65813;49.546;8.644;2023-06-24T12:32:46;101220.00;;;26.69;36.62
76847;BME280;65813;49.546;8.644;2023-06-24T12:36:46;101214.53;;;26.69;35.67
76847;BME280;65813;49.546;8.644;2023-06-24T12:40:47;101211.59;;;27.20;34.57
76847;BME280;65813;49.546;8.644;2023-06-24T12:44:48;101209.91;;;27.46;36.14
76847;BME280;65813;49.546;8.644;2023-06-24T12:48:48;101189.53;;;28.09;34.85
76847;BME280;65813;49.546;8.644;2023-06-24T12:52:48;101193.34;;;28.28;34.15
76847;BME280;65813;49.546;8.644;2023-06-24T12:56:49;101191.47;;;28.29;32.75
76847;BME280;65813;49.546;8.644;2023-06-24T13:00:49;101180.13;;;28.58;33.14
76847;BME280;65813;49.546;8.644;2023-06-24T13:04:49;101181.75;;;28.13;34.30
76847;BME280;65813;49.546;8.644;2023-06-24T13:08:50;101180.66;;;28.07;35.46
76847;BME280;65813;49.546;8.644;2023-06-24T13:12:50;101173.75;;;28.25;34.29
76847;BME280;65813;49.546;8.644;2023-06-24T13:16:50;101172.69;;;28.58;33.40
76847;BME280;65813;49.546;8.644;2023-06-24T13:20:51;101176.28;;;28.39;33.87
76847;BME280;65813;49.546;8.644;2023-06-24T13:24:51;101173.34;;;28.47;33.63
76847;BME280;65813;49.546;8.644;2023-06-24T13:28:51;101164.91;;;28.49;29.74
76847;BME280;65813;49.546;8.644;2023-06-24T13:32:52;101160.69;;;28.79;31.86
76847;BME280;65813;49.546;8.644;2023-06-24T13:36:53;101158.63;;;28.75;33.06
76847;BME280;65813;49.546;8.644;2023-06-24T13:40:54;101160.47;;;28.48;33.18
76847;BME280;65813;49.546;8.644;2023-06-24T13:44:54;101153.94;;;28.23;34.08
76847;BME280;65813;49.546;8.644;2023-06-24T13:48:56;101150.34;;;28.55;32.55
76847;BME280;65813;49.546;8.644;2023-06-24T13:52:57;101141.91;;;28.37;32.32
76847;BME280;65813;49.546;8.644;2023-06-24T13:56:57;101141.69;;;28.32;32.95
76847;BME280;65813;49.546;8.644;2023-06-24T14:00:57;101140.44;;;28.34;32.18
76847;BME280;65813;49.546;8.644;2023-06-24T14:04:58;101131.81;;;28.77;29.56
76847;BME280;65813;49.546;8.644;2023-06-24T14:08:58;101129.72;;;28.79;32.13
76847;BME280;65813;49.546;8.644;2023-06-24T14:12:58;101133.66;;;28.89;31.73
76847;BME280;65813;49.546;8.644;2023-06-24T14:16:59;101118.03;;;28.96;32.69
76847;BME280;65813;49.546;8.644;2023-06-24T14:20:59;101116.19;;;28.71;29.51
76847;BME280;65813;49.546;8.644;2023-06-24T14:25:00;101105.19;;;28.84;30.11
76847;BME280;65813;49.546;8.644;2023-06-24T14:29:00;101106.25;;;28.96;31.00
76847;BME280;65813;49.546;8.644;2023-06-24T14:33:01;101110.06;;;28.88;31.21
76847;BME280;65813;49.546;8.644;2023-06-24T14:37:01;101092.50;;;29.02;30.77
76847;BME280;65813;49.546;8.644;2023-06-24T14:41:02;101081.69;;;29.14;30.72
76847;BME280;65813;49.546;8.644;2023-06-24T14:45:02;101082.56;;;29.08;30.40
76847;BME280;65813;49.546;8.644;2023-06-24T14:49:03;101090.00;;;28.88;29.85
76847;BME280;65813;49.546;8.644;2023-06-24T14:53:03;101082.09;;;29.18;30.71
76847;BME280;65813;49.546;8.644;2023-06-24T14:57:04;101081.00;;;29.32;28.75
76847;BME280;65813;49.546;8.644;2023-06-24T15:01:04;101074.13;;;29.09;28.60
76847;BME280;65813;49.546;8.644;2023-06-24T15:05:04;101070.97;;;29.06;29.58
76847;BME280;65813;49.546;8.644;2023-06-24T15:09:05;101072.28;;;28.77;30.46
76847;BME280;65813;49.546;8.644;2023-06-24T15:13:05;101056.03;;;28.76;28.04
76847;BME280;65813;49.546;8.644;2023-06-24T15:17:06;101058.47;;;29.10;30.16
76847;BME280;65813;49.546;8.644;2023-06-24T15:21:06;101052.34;;;29.15;28.70
76847;BME280;65813;49.546;8.644;2023-06-24T15:25:06;101049.56;;;29.28;29.45
76847;BME280;65813;49.546;8.644;2023-06-24T15:29:07;101043.91;;;29.16;29.81
76847;BME280;65813;49.546;8.644;2023-06-24T15:33:07;101041.38;;;29.08;30.11
76847;BME280;65813;49.546;8.644;2023-06-24T15:37:08;101040.47;;;29.21;29.21
76847;BME280;65813;49.546;8.644;2023-06-24T15:41:08;101044.06;;;29.21;28.27
76847;BME280;65813;49.546;8.644;2023-06-24T15:45:09;101034.78;;;29.22;29.60
76847;BME280;65813;49.546;8.644;2023-06-24T15:49:10;101041.31;;;29.21;27.65
76847;BME280;65813;49.546;8.644;2023-06-24T15:53:10;101026.78;;;29.14;29.63
76847;BME280;65813;49.546;8.644;2023-06-24T15:57:10;101028.06;;;29.12;29.17
76847;BME280;65813;49.546;8.644;2023-06-24T16:01:11;101024.59;;;28.65;29.51
76847;BME280;65813;49.546;8.644;2023-06-24T16:05:11;101017.69;;;28.49;28.77
76847;BME280;65813;49.546;8.644;2023-06-24T16:09:12;101014.28;;;28.67;28.68
76847;BME280;65813;49.546;8.644;2023-06-24T16:13:12;101017.22;;;28.79;29.78
76847;BME280;65813;49.546;8.644;2023-06-24T16:17:13;101015.69;;;28.89;26.92
76847;BME280;65813;49.546;8.644;2023-06-24T16:21:13;101012.91;;;29.02;27.97
76847;BME280;65813;49.546;8.644;2023-06-24T16:25:14;101007.84;;;29.06;29.06
76847;BME280;65813;49.546;8.644;2023-06-24T16:29:15;101003.59;;;29.03;28.85
76847;BME280;65813;49.546;8.644;2023-06-24T16:33:16;100999.00;;;28.97;28.91
76847;BME280;65813;49.546;8.644;2023-06-24T16:37:16;101007.47;;;28.96;28.98
76847;BME280;65813;49.546;8.644;2023-06-24T16:41:16;101001.97;;;28.96;28.83
76847;BME280;65813;49.546;8.644;2023-06-24T16:45:17;101000.47;;;28.93;28.63
76847;BME280;65813;49.546;8.644;2023-06-24T16:49:17;101002.78;;;29.03;28.73
76847;BME280;65813;49.546;8.644;2023-06-24T16:53:18;100997.63;;;28.55;26.39
76847;BME280;65813;49.546;8.644;2023-06-24T16:57:18;101002.91;;;28.50;26.61
76847;BME280;65813;49.546;8.644;2023-06-24T17:01:18;100997.63;;;28.55;26.46
76847;BME280;65813;49.546;8.644;2023-06-24T17:05:19;100995.72;;;28.56;27.58
76847;BME280;65813;49.546;8.644;2023-06-24T17:09:19;100983.91;;;28.75;26.52
76847;BME280;65813;49.546;8.644;2023-06-24T17:13:19;100989.16;;;28.77;28.32
76847;BME280;65813;49.546;8.644;2023-06-24T17:17:20;100990.84;;;28.78;28.35
76847;BME280;65813;49.546;8.644;2023-06-24T17:21:20;100993.34;;;28.79;27.91
76847;BME280;65813;49.546;8.644;2023-06-24T17:25:21;100998.53;;;28.30;27.73
76847;BME280;65813;49.546;8.644;2023-06-24T17:29:21;100991.56;;;28.27;28.04
76847;BME280;65813;49.546;8.644;2023-06-24T17:33:21;100991.09;;;28.50;30.06
76847;BME280;65813;49.546;8.644;2023-06-24T17:37:23;100997.28;;;28.13;28.37
76847;BME280;65813;49.546;8.644;2023-06-24T17:41:23;100992.22;;;28.03;28.65
76847;BME280;65813;49.546;8.644;2023-06-24T17:45:24;100989.50;;;28.09;27.79
76847;BME280;65813;49.546;8.644;2023-06-24T17:49:24;100990.72;;;27.87;29.20
76847;BME280;65813;49.546;8.644;2023-06-24T17:53:25;100992.84;;;28.12;29.98
76847;BME280;65813;49.546;8.644;2023-06-24T17:57:25;100983.59;;;28.13;31.03
76847;BME280;65813;49.546;8.644;2023-06-24T18:01:25;100979.97;;;28.19;31.36
76847;BME280;65813;49.546;8.644;2023-06-24T18:05:29;100983.16;;;28.16;30.19
76847;BME280;65813;49.546;8.644;2023-06-24T18:09:29;100978.72;;;27.95;31.07
76847;BME280;65813;49.546;8.644;2023-06-24T18:13:29;100979.31;;;28.03;30.71
76847;BME280;65813;49.546;8.644;2023-06-24T18:17:30;100983.75;;;27.91;30.58
76847;BME280;65813;49.546;8.644;2023-06-24T18:21:30;100976.16;;;27.93;31.98
76847;BME280;65813;49.546;8.644;2023-06-24T18:25:30;100985.66;;;27.91;30.93
76847;BME280;65813;49.546;8.644;2023-06-24T18:29:31;100975.09;;;27.55;28.82
76847;BME280;65813;49.546;8.644;2023-06-24T18:33:31;100968.56;;;27.49;29.28
76847;BME280;65813;49.546;8.644;2023-06-24T18:37:31;100965.22;;;27.54;32.03
76847;BME280;65813;49.546;8.644;2023-06-24T18:41:32;100964.56;;;27.52;30.55
76847;BME280;65813;49.546;8.644;2023-06-24T18:45:32;100971.72;;;27.46;31.50
76847;BME280;65813;49.546;8.644;2023-06-24T18:49:33;100962.88;;;27.51;32.94
76847;BME280;65813;49.546;8.644;2023-06-24T18:53:33;100964.13;;;27.48;34.18
76847;BME280;65813;49.546;8.644;2023-06-24T18:57:33;100963.09;;;27.49;32.63
76847;BME280;65813;49.546;8.644;2023-06-24T19:01:34;100953.56;;;27.39;31.01
76847;BME280;65813;49.546;8.644;2023-06-24T19:05:34;100961.91;;;27.11;31.77
76847;BME280;65813;49.546;8.644;2023-06-24T19:09:36;100961.94;;;27.18;32.43
76847;BME280;65813;49.546;8.644;2023-06-24T19:13:36;100970.06;;;26.91;33.57
76847;BME280;65813;49.546;8.644;2023-06-24T19:17:37;100969.28;;;26.70;34.79
76847;BME280;65813;49.546;8.644;2023-06-24T19:21:38;100968.59;;;26.20;36.09
76847;BME280;65813;49.546;8.644;2023-06-24T19:25:39;100969.34;;;25.86;37.35
76847;BME280;65813;49.546;8.644;2023-06-24T19:29:40;100963.25;;;25.63;37.28
76847;BME280;65813;49.546;8.644;2023-06-24T19:33:40;100958.44;;;25.44;37.80
76847;BME280;65813;49.546;8.644;2023-06-24T19:37:40;100964.84;;;25.15;38.64
76847;BME280;65813;49.546;8.644;2023-06-24T19:41:42;100966.56;;;25.01;38.88
76847;BME280;65813;49.546;8.644;2023-06-24T19:45:42;100969.53;;;24.71;39.71
76847;BME280;65813;49.546;8.644;2023-06-24T19:49:53;100980.13;;;24.65;39.38
76847;BME280;65813;49.546;8.644;2023-06-24T19:53:54;100981.28;;;24.42;40.30
76847;BME280;65813;49.546;8.644;2023-06-24T19:57:55;100977.72;;;24.27;40.71
76847;BME280;65813;49.546;8.644;2023-06-24T20:01:55;100974.44;;;24.08;40.98
76847;BME280;65813;49.546;8.644;2023-06-24T20:05:55;100979.00;;;23.93;41.26
76847;BME280;65813;49.546;8.644;2023-06-24T20:09:56;100973.91;;;23.76;41.85
76847;BME280;65813;49.546;8.644;2023-06-24T20:13:56;100974.56;;;23.55;41.76
76847;BME280;65813;49.546;8.644;2023-06-24T20:17:59;100976.53;;;23.38;42.81
76847;BME280;65813;49.546;8.644;2023-06-24T20:21:59;100973.91;;;23.30;42.43
76847;BME280;65813;49.546;8.644;2023-06-24T20:25:59;100972.81;;;23.17;42.90
76847;BME280;65813;49.546;8.644;2023-06-24T20:30:00;100975.56;;;23.08;42.47
76847;BME280;65813;49.546;8.644;2023-06-24T20:34:00;100974.59;;;23.01;42.57
76847;BME280;65813;49.546;8.644;2023-06-24T20:38:00;100980.25;;;22.92;43.01
76847;BME280;65813;49.546;8.644;2023-06-24T20:42:01;100973.28;;;22.89;42.81
76847;BME280;65813;49.546;8.644;2023-06-24T20:46:01;100976.91;;;22.82;42.66
76847;BME280;65813;49.546;8.644;2023-06-24T20:50:03;100980.34;;;22.68;43.58
76847;BME280;65813;49.546;8.644;2023-06-24T20:54:04;100973.72;;;22.70;42.89
76847;BME280;65813;49.546;8.644;2023-06-24T20:58:08;100964.91;;;22.68;43.48
76847;BME280;65813;49.546;8.644;2023-06-24T21:02:09;100973.25;;;22.50;44.15
76847;BME280;65813;49.546;8.644;2023-06-24T21:06:09;100978.19;;;22.47;44.61
76847;BME280;65813;49.546;8.644;2023-06-24T21:10:09;100975.19;;;22.34;44.71
76847;BME280;65813;49.546;8.644;2023-06-24T21:14:11;100975.88;;;22.28;44.89
76847;BME280;65813;49.546;8.644;2023-06-24T21:30:42;100976.09;;;21.94;46.07
76847;BME280;65813;49.546;8.644;2023-06-24T21:34:42;100972.19;;;21.80;46.63
76847;BME280;65813;49.546;8.644;2023-06-24T21:38:43;100978.44;;;21.73;47.24
76847;BME280;65813;49.546;8.644;2023-06-24T21:42:43;100974.22;;;21.46;47.78
76847;BME280;65813;49.546;8.644;2023-06-24T21:46:43;100970.84;;;21.44;48.41
76847;BME280;65813;49.546;8.644;2023-06-24T21:50:44;100974.53;;;21.35;48.90
76847;BME280;65813;49.546;8.644;2023-06-24T21:54:44;100971.81;;;21.35;48.31
76847;BME280;65813;49.546;8.644;2023-06-24T21:58:45;100967.09;;;21.37;48.31
76847;BME280;65813;49.546;8.644;2023-06-24T22:02:45;100963.00;;;21.17;48.95
76847;BME280;65813;49.546;8.644;2023-06-24T22:06:46;100963.66;;;21.10;49.59
76847;BME280;65813;49.546;8.644;2023-06-24T22:10:46;100961.41;;;20.98;49.54
76847;BME280;65813;49.546;8.644;2023-06-24T22:14:46;100960.22;;;21.00;49.56
